createdAt,value
2022-08-28T00:00:37.146Z,101141.41
2022-08-28T00:03:05.759Z,101140.31
2022-08-28T00:05:34.568Z,101132.09
2022-08-28T00:08:01.283Z,101135.81
2022-08-28T00:10:28.619Z,101136.06
2022-08-28T00:12:57.418Z,101140.19
2022-08-28T00:15:33.876Z,101125.78
2022-08-28T00:18:03.636Z,101135.25
2022-08-28T00:20:31.682Z,101123.31
2022-08-28T00:23:00.385Z,101122.31
2022-08-28T00:25:30.292Z,101120.69
2022-08-28T00:28:00.652Z,101114.63
2022-08-28T00:30:37.274Z,101098.06
2022-08-28T00:33:08.272Z,101106.44
2022-08-28T00:35:40.615Z,101096.22
2022-08-28T00:38:09.880Z,101096.00
2022-08-28T00:40:38.908Z,101103.22
2022-08-28T00:43:08.140Z,101095.00
2022-08-28T00:45:39.640Z,101092.38
2022-08-28T00:48:07.590Z,101090.06
2022-08-28T00:50:56.829Z,101090.81
2022-08-28T00:53:32.944Z,101080.25
2022-08-28T00:56:04.223Z,101090.44
2022-08-28T00:58:38.164Z,101083.50
2022-08-28T01:01:05.062Z,101078.16
2022-08-28T01:03:31.801Z,101075.06
2022-08-28T01:05:58.576Z,101065.88
2022-08-28T01:08:25.402Z,101063.25
2022-08-28T01:11:01.169Z,101050.00
2022-08-28T01:13:29.414Z,101046.13
2022-08-28T01:15:57.389Z,101052.09
2022-08-28T01:18:26.696Z,101033.97
2022-08-28T01:21:05.584Z,101031.38
2022-08-28T01:23:51.665Z,101028.03
2022-08-28T01:26:18.355Z,101028.28
2022-08-28T01:28:45.561Z,101027.28
2022-08-28T01:31:14.855Z,101024.81
2022-08-28T01:33:42.806Z,101025.69
2022-08-28T01:36:15.920Z,101023.97
2022-08-28T01:38:45.505Z,101017.38
2022-08-28T01:41:14.034Z,101017.63
2022-08-28T01:43:42.882Z,101020.75
2022-08-28T01:46:12.312Z,101012.66
2022-08-28T01:48:42.615Z,101016.88
2022-08-28T01:51:10.652Z,101008.34
2022-08-28T01:53:38.467Z,101007.81
2022-08-28T01:56:11.195Z,101007.69
2022-08-28T01:58:39.080Z,101000.88
2022-08-28T02:01:13.829Z,100997.75
2022-08-28T02:03:43.081Z,100993.53
2022-08-28T02:06:11.313Z,100999.25
2022-08-28T02:08:38.133Z,100996.53
2022-08-28T02:11:06.413Z,100993.81
2022-08-28T02:13:35.518Z,100994.56
2022-08-28T02:16:05.025Z,101001.28
2022-08-28T02:18:32.223Z,101000.78
2022-08-28T02:20:59.413Z,101003.88
2022-08-28T02:23:26.154Z,101003.75
2022-08-28T02:25:53.152Z,101004.03
2022-08-28T02:28:19.950Z,101003.53
2022-08-28T02:30:46.707Z,101005.75
2022-08-28T02:33:13.448Z,100999.56
2022-08-28T02:35:42.499Z,100994.06
2022-08-28T02:38:10.381Z,100993.09
2022-08-28T02:40:38.532Z,100996.69
2022-08-28T02:43:05.843Z,100996.06
2022-08-28T02:45:33.324Z,100985.53
2022-08-28T02:48:01.664Z,100985.28
2022-08-28T02:50:29.933Z,100985.28
2022-08-28T02:52:57.211Z,100979.34
2022-08-28T02:55:24.808Z,100974.50
2022-08-28T02:57:52.862Z,100972.00
2022-08-28T03:00:23.808Z,100978.69
2022-08-28T03:02:50.965Z,100981.69
2022-08-28T03:05:22.368Z,100971.75
2022-08-28T03:07:50.471Z,100975.38
2022-08-28T03:10:18.366Z,100979.84
2022-08-28T03:12:45.365Z,100975.22
2022-08-28T03:15:12.781Z,100974.97
2022-08-28T03:17:40.382Z,100964.81
2022-08-28T03:20:11.738Z,100959.75
2022-08-28T03:22:56.964Z,100960.09
2022-08-28T03:25:24.809Z,100956.63
2022-08-28T03:27:52.177Z,100904.84
2022-08-28T03:30:19.962Z,100902.97
2022-08-28T03:32:46.893Z,100894.44
2022-08-28T03:35:14.039Z,100900.50
2022-08-28T03:37:41.082Z,100897.16
2022-08-28T03:40:09.319Z,100888.00
2022-08-28T03:42:36.323Z,100881.16
2022-08-28T03:45:05.364Z,100870.41
2022-08-28T03:47:32.223Z,100859.25
2022-08-28T03:49:59.135Z,100864.19
2022-08-28T03:52:26.149Z,100867.19
2022-08-28T03:54:52.915Z,100857.88
2022-08-28T03:57:22.169Z,100858.25
2022-08-28T03:59:51.414Z,100885.00
2022-08-28T04:02:20.619Z,100874.59
2022-08-28T04:04:48.936Z,100873.97
2022-08-28T04:07:22.980Z,100874.22
2022-08-28T04:09:50.025Z,100866.19
2022-08-28T04:12:16.839Z,100865.31
2022-08-28T04:14:43.548Z,100862.06
2022-08-28T04:17:10.295Z,100863.81
2022-08-28T04:19:38.020Z,100855.09
2022-08-28T04:22:05.099Z,100861.22
2022-08-28T04:24:31.790Z,100862.78
2022-08-28T04:26:58.543Z,100867.63
2022-08-28T04:29:25.268Z,100873.09
2022-08-28T04:31:52.010Z,100876.53
2022-08-28T04:34:19.444Z,100871.09
2022-08-28T04:36:46.795Z,100855.00
2022-08-28T04:39:13.633Z,100860.31
2022-08-28T04:41:40.606Z,100854.75
2022-08-28T04:44:08.068Z,100852.63
2022-08-28T04:46:35.655Z,100850.53
2022-08-28T04:49:04.220Z,100841.66
2022-08-28T04:51:32.202Z,100852.06
2022-08-28T04:54:01.374Z,100846.22
2022-08-28T04:56:28.217Z,100834.72
2022-08-28T04:58:55.246Z,100840.00
2022-08-28T05:01:27.073Z,100839.66
2022-08-28T05:04:00.508Z,100841.88
2022-08-28T05:06:29.169Z,100842.09
2022-08-28T05:09:01.056Z,100837.13
2022-08-28T05:11:33.208Z,100834.63
2022-08-28T05:14:00.890Z,100835.13
2022-08-28T05:16:27.652Z,100834.00
2022-08-28T05:18:54.413Z,100826.94
2022-08-28T05:21:22.931Z,100825.53
2022-08-28T05:23:54.170Z,100827.91
2022-08-28T05:26:21.126Z,100827.69
2022-08-28T05:28:48.598Z,100829.78
2022-08-28T05:31:18.860Z,100830.66
2022-08-28T05:33:48.585Z,100829.63
2022-08-28T05:36:16.614Z,100830.88
2022-08-28T05:38:44.346Z,100828.19
2022-08-28T05:41:11.966Z,100839.84
2022-08-28T05:43:39.485Z,100839.78
2022-08-28T05:46:10.504Z,100839.00
2022-08-28T05:48:39.640Z,100843.69
2022-08-28T05:51:12.402Z,100842.88
2022-08-28T05:53:41.508Z,100856.72
2022-08-28T05:56:09.830Z,100864.50
2022-08-28T05:58:37.741Z,100861.84
2022-08-28T06:01:15.331Z,100872.41
2022-08-28T06:03:50.979Z,100875.03
2022-08-28T06:06:17.678Z,100884.44
2022-08-28T06:08:58.097Z,100888.44
2022-08-28T06:11:30.921Z,100898.38
2022-08-28T06:14:02.950Z,100909.88
2022-08-28T06:16:31.661Z,100919.16
2022-08-28T06:18:59.169Z,100922.41
2022-08-28T06:21:26.082Z,100928.75
2022-08-28T06:23:53.172Z,100940.31
2022-08-28T06:26:20.280Z,100976.34
2022-08-28T06:28:47.110Z,101030.22
2022-08-28T06:31:23.610Z,101051.31
2022-08-28T06:33:57.049Z,101106.34
2022-08-28T06:36:27.299Z,101128.00
2022-08-28T06:38:55.621Z,101164.66
2022-08-28T06:41:22.428Z,101201.91
2022-08-28T06:43:49.211Z,101236.66
2022-08-28T06:46:16.453Z,101297.38
2022-08-28T06:48:43.231Z,101329.97
2022-08-28T06:51:12.039Z,101369.72
2022-08-28T06:53:40.788Z,101398.75
2022-08-28T06:56:21.139Z,101426.66
2022-08-28T06:58:52.907Z,101442.72
2022-08-28T07:01:27.185Z,101465.47
2022-08-28T07:03:56.823Z,101479.16
2022-08-28T07:06:24.374Z,101506.56
2022-08-28T07:08:51.463Z,101504.34
2022-08-28T07:11:20.953Z,101506.72
2022-08-28T07:13:48.535Z,101509.09
2022-08-28T07:16:18.879Z,101518.75
2022-08-28T07:18:46.612Z,101524.50
2022-08-28T07:21:13.742Z,101528.44
2022-08-28T07:23:44.289Z,101538.66
2022-08-28T07:26:14.464Z,101541.91
2022-08-28T07:28:41.360Z,101552.06
2022-08-28T07:31:13.744Z,101557.03
2022-08-28T07:33:50.090Z,101569.66
2022-08-28T07:36:29.858Z,101559.50
2022-08-28T07:38:59.187Z,101583.84
2022-08-28T07:41:28.994Z,101582.41
2022-08-28T07:44:14.808Z,101591.53
2022-08-28T07:46:44.714Z,101601.34
2022-08-28T07:49:12.759Z,101614.97
2022-08-28T07:51:39.561Z,101602.59
2022-08-28T07:54:06.293Z,101602.47
2022-08-28T07:56:40.813Z,101616.50
2022-08-28T07:59:09.809Z,101615.66
2022-08-28T08:01:39.997Z,101618.19
2022-08-28T08:04:09.543Z,101621.94
2022-08-28T08:06:37.570Z,101628.84
2022-08-28T08:09:05.612Z,101615.81
2022-08-28T08:11:32.820Z,101619.06
2022-08-28T08:14:04.769Z,101631.44
2022-08-28T08:16:34.963Z,101633.75
2022-08-28T08:19:02.447Z,101632.75
2022-08-28T08:21:30.514Z,101632.19
2022-08-28T08:23:58.334Z,101631.47
2022-08-28T08:26:28.259Z,101637.31
2022-08-28T08:28:56.238Z,101629.41
2022-08-28T08:31:26.783Z,101645.19
2022-08-28T08:33:57.052Z,101642.03
2022-08-28T08:36:26.743Z,101654.09
2022-08-28T08:38:59.372Z,101653.50
2022-08-28T08:41:39.074Z,101648.38
2022-08-28T08:44:24.064Z,101668.66
2022-08-28T08:47:19.416Z,101651.94
2022-08-28T08:49:54.558Z,101651.38
2022-08-28T08:52:34.408Z,101640.44
2022-08-28T08:55:03.469Z,101647.34
2022-08-28T08:57:31.717Z,101634.84
2022-08-28T08:59:58.589Z,101632.19
2022-08-28T09:02:33.626Z,101631.56
2022-08-28T09:05:07.410Z,101650.19
2022-08-28T09:07:34.016Z,101683.03
2022-08-28T09:10:04.709Z,101650.00
2022-08-28T09:12:44.017Z,101647.47
2022-08-28T09:15:17.626Z,101638.59
2022-08-28T09:17:52.901Z,101633.44
2022-08-28T09:20:32.300Z,101628.38
2022-08-28T09:23:00.577Z,101649.31
2022-08-28T09:25:44.327Z,101603.09
2022-08-28T09:28:16.893Z,101606.09
2022-08-28T09:30:44.719Z,101601.59
2022-08-28T09:33:11.482Z,101602.03
2022-08-28T09:35:38.471Z,101627.28
2022-08-28T09:38:27.563Z,101649.75
2022-08-28T09:41:31.414Z,101655.69
2022-08-28T09:43:59.267Z,101650.94
2022-08-28T09:46:32.155Z,101598.72
2022-08-28T09:49:12.052Z,101560.88
2022-08-28T09:51:39.876Z,101569.41
2022-08-28T09:54:23.508Z,101561.63
2022-08-28T09:56:50.765Z,101515.34
2022-08-28T09:59:20.699Z,101549.47
2022-08-28T10:01:50.908Z,101582.56
2022-08-28T10:04:29.537Z,101618.63
2022-08-28T10:07:24.474Z,101635.53
2022-08-28T10:10:00.267Z,101633.44
2022-08-28T10:12:48.586Z,101647.50
2022-08-28T10:15:26.078Z,101619.38
2022-08-28T10:18:19.924Z,101596.41
2022-08-28T10:20:49.499Z,101580.91
2022-08-28T10:23:37.185Z,101546.47
2022-08-28T10:26:42.276Z,101583.25
2022-08-28T10:29:23.117Z,101589.19
2022-08-28T10:32:08.231Z,101625.81
2022-08-28T10:35:06.025Z,101584.13
2022-08-28T10:37:38.654Z,101570.16
2022-08-28T10:40:18.505Z,101569.09
2022-08-28T10:43:02.236Z,101558.94
2022-08-28T10:45:30.712Z,101571.16
2022-08-28T10:48:06.905Z,101547.22
2022-08-28T10:50:42.886Z,101537.25
2022-08-28T10:53:26.398Z,101564.31
2022-08-28T10:55:58.279Z,101610.78
2022-08-28T10:58:27.642Z,101623.00
2022-08-28T11:01:05.187Z,101665.84
2022-08-28T11:03:41.851Z,101611.88
2022-08-28T11:06:25.488Z,101618.84
2022-08-28T11:08:56.220Z,101613.69
2022-08-28T11:11:43.157Z,101596.09
2022-08-28T11:14:10.587Z,101615.66
2022-08-28T11:16:46.712Z,101602.25
2022-08-28T11:19:32.582Z,101589.78
2022-08-28T11:22:08.752Z,101552.00
2022-08-28T11:24:55.147Z,101575.38
2022-08-28T11:27:38.581Z,101594.31
2022-08-28T11:30:11.266Z,101628.06
2022-08-28T11:32:51.188Z,101633.69
2022-08-28T11:35:20.805Z,101619.75
2022-08-28T11:37:50.193Z,101583.59
2022-08-28T11:40:20.061Z,101545.75
2022-08-28T11:42:50.154Z,101563.13
2022-08-28T11:45:48.010Z,101543.16
2022-08-28T11:48:33.576Z,101546.13
2022-08-28T11:51:04.788Z,101601.81
2022-08-28T11:53:46.621Z,101627.72
2022-08-28T11:56:31.500Z,101649.22
2022-08-28T11:59:16.638Z,101644.34
2022-08-28T12:01:43.886Z,101626.81
2022-08-28T12:04:17.571Z,101664.66
2022-08-28T12:06:47.425Z,101677.50
2022-08-28T12:09:26.444Z,101687.16
2022-08-28T12:11:59.420Z,101703.81
2022-08-28T12:14:26.008Z,101685.88
2022-08-28T12:16:58.782Z,101666.22
2022-08-28T12:19:34.050Z,101641.38
2022-08-28T12:22:06.769Z,101606.78
2022-08-28T12:24:35.476Z,101622.13
2022-08-28T12:27:03.517Z,101597.09
2022-08-28T12:29:45.041Z,101595.06
2022-08-28T12:32:32.924Z,101582.19
2022-08-28T12:34:59.509Z,101570.94
2022-08-28T12:37:39.882Z,101583.59
2022-08-28T12:40:32.127Z,101567.63
2022-08-28T12:43:05.520Z,101613.84
2022-08-28T12:45:40.735Z,101615.50
2022-08-28T12:48:29.538Z,101649.91
2022-08-28T12:51:03.308Z,101656.75
2022-08-28T12:53:47.915Z,101655.09
2022-08-28T12:56:17.885Z,101649.38
2022-08-28T12:58:46.168Z,101658.41
2022-08-28T13:01:26.622Z,101671.44
2022-08-28T13:03:59.509Z,101689.25
2022-08-28T13:06:40.072Z,101692.34
2022-08-28T13:09:16.053Z,101685.00
2022-08-28T13:11:49.222Z,101682.81
2022-08-28T13:14:46.166Z,101663.81
2022-08-28T13:17:18.964Z,101630.19
2022-08-28T13:19:45.655Z,101627.94
2022-08-28T13:22:34.623Z,101593.16
2022-08-28T13:25:03.289Z,101624.47
2022-08-28T13:27:30.091Z,101634.56
2022-08-28T13:30:06.207Z,101658.84
2022-08-28T13:32:36.746Z,101688.34
2022-08-28T13:35:13.746Z,101688.75
2022-08-28T13:37:49.324Z,101702.09
2022-08-28T13:40:55.767Z,101690.03
2022-08-28T13:43:11.727Z,101699.75
2022-08-28T13:45:46.297Z,101687.41
2022-08-28T13:48:32.222Z,101651.69
2022-08-28T13:51:05.509Z,101651.84
2022-08-28T13:53:36.895Z,101617.28
2022-08-28T13:56:03.732Z,101613.38
2022-08-28T13:58:30.517Z,101620.09
2022-08-28T14:00:57.570Z,101631.28
2022-08-28T14:03:36.513Z,101628.31
2022-08-28T14:06:06.017Z,101613.34
2022-08-28T14:08:33.875Z,101631.22
2022-08-28T14:11:00.922Z,101608.22
2022-08-28T14:13:27.973Z,101605.47
2022-08-28T14:15:56.476Z,101607.50
2022-08-28T14:18:25.138Z,101636.13
2022-08-28T14:20:52.153Z,101656.78
2022-08-28T14:23:18.937Z,101658.69
2022-08-28T14:25:49.638Z,101672.75
2022-08-28T14:28:42.357Z,101656.66
2022-08-28T14:31:13.828Z,101670.81
2022-08-28T14:33:42.388Z,101689.97
2022-08-28T14:36:21.783Z,101687.53
2022-08-28T14:38:52.684Z,101683.09
2022-08-28T14:41:22.387Z,101688.66
2022-08-28T14:43:49.654Z,101686.75
2022-08-28T14:46:29.010Z,101711.47
2022-08-28T14:48:59.144Z,101711.31
2022-08-28T14:51:27.006Z,101717.94
2022-08-28T14:53:53.885Z,101698.13
2022-08-28T14:56:22.317Z,101684.06
2022-08-28T14:58:49.254Z,101722.72
2022-08-28T15:01:39.938Z,101721.63
2022-08-28T15:04:11.681Z,101722.22
2022-08-28T15:06:38.897Z,101708.81
2022-08-28T15:09:05.895Z,101684.88
2022-08-28T15:11:32.681Z,101701.84
2022-08-28T15:13:59.517Z,101697.00
2022-08-28T15:16:30.588Z,101715.34
2022-08-28T15:18:59.959Z,101732.44
2022-08-28T15:21:34.106Z,101720.50
2022-08-28T15:24:03.382Z,101733.03
2022-08-28T15:26:30.925Z,101738.91
2022-08-28T15:29:02.468Z,101740.69
2022-08-28T15:31:35.175Z,101739.84
2022-08-28T15:34:13.270Z,101734.47
2022-08-28T15:36:42.773Z,101725.16
2022-08-28T15:39:29.055Z,101711.06
2022-08-28T15:41:57.152Z,101705.84
2022-08-28T15:44:24.167Z,101690.66
2022-08-28T15:46:56.983Z,101693.31
2022-08-28T15:49:25.089Z,101698.88
2022-08-28T15:51:52.632Z,101711.16
2022-08-28T15:54:20.645Z,101697.22
2022-08-28T15:56:52.666Z,101688.94
2022-08-28T15:59:20.849Z,101686.16
2022-08-28T16:01:47.821Z,101694.78
2022-08-28T16:04:15.308Z,101686.66
2022-08-28T16:06:42.514Z,101701.06
2022-08-28T16:09:10.229Z,101709.75
2022-08-28T16:11:38.823Z,101710.28
2022-08-28T16:14:07.290Z,101707.75
2022-08-28T16:16:34.571Z,101722.56
2022-08-28T16:19:01.715Z,101731.72
2022-08-28T16:21:28.615Z,101747.97
2022-08-28T16:23:55.601Z,101755.53
2022-08-28T16:26:22.868Z,101755.59
2022-08-28T16:28:49.943Z,101759.50
2022-08-28T16:31:18.931Z,101760.00
2022-08-28T16:33:47.801Z,101766.34
2022-08-28T16:36:15.226Z,101763.34
2022-08-28T16:38:44.127Z,101765.97
2022-08-28T16:41:23.995Z,101766.13
2022-08-28T16:43:54.676Z,101768.34
2022-08-28T16:46:24.441Z,101760.66
2022-08-28T16:48:52.551Z,101766.78
2022-08-28T16:51:20.581Z,101764.06
2022-08-28T16:53:47.845Z,101760.09
2022-08-28T16:56:17.283Z,101758.34
2022-08-28T16:58:45.119Z,101755.31
2022-08-28T17:01:13.644Z,101764.47
2022-08-28T17:03:41.842Z,101766.63
2022-08-28T17:06:15.976Z,101752.00
2022-08-28T17:08:43.902Z,101759.78
2022-08-28T17:11:11.340Z,101745.72
2022-08-28T17:13:38.330Z,101749.78
2022-08-28T17:16:06.021Z,101751.09
2022-08-28T17:18:33.025Z,101753.25
2022-08-28T17:21:18.406Z,101753.13
2022-08-28T17:23:49.507Z,101753.97
2022-08-28T17:26:17.078Z,101744.94
2022-08-28T17:28:44.919Z,101748.66
2022-08-28T17:31:14.315Z,101748.81
2022-08-28T17:33:43.742Z,101752.97
2022-08-28T17:36:25.685Z,101746.16
2022-08-28T17:39:02.645Z,101742.78
2022-08-28T17:41:29.510Z,101736.69
2022-08-28T17:44:00.523Z,101740.84
2022-08-28T17:46:27.454Z,101736.22
2022-08-28T17:48:56.117Z,101724.31
2022-08-28T17:51:41.859Z,101714.59
2022-08-28T17:54:18.842Z,101704.84
2022-08-28T17:56:46.668Z,101703.09
2022-08-28T17:59:14.364Z,101718.56
2022-08-28T18:01:42.766Z,101719.69
2022-08-28T18:04:10.382Z,101705.72
2022-08-28T18:06:37.360Z,101710.03
2022-08-28T18:09:05.505Z,101700.63
2022-08-28T18:11:32.237Z,101691.53
2022-08-28T18:13:59.852Z,101695.56
2022-08-28T18:16:31.145Z,101696.41
2022-08-28T18:19:02.540Z,101693.81
2022-08-28T18:21:29.813Z,101689.88
2022-08-28T18:23:56.976Z,101692.34
2022-08-28T18:26:24.136Z,101692.72
2022-08-28T18:28:51.408Z,101689.41
2022-08-28T18:31:18.923Z,101673.47
2022-08-28T18:33:45.667Z,101671.84
2022-08-28T18:36:14.160Z,101658.63
2022-08-28T18:38:41.889Z,101649.53
2022-08-28T18:41:09.454Z,101644.16
2022-08-28T18:43:36.678Z,101625.47
2022-08-28T18:46:04.867Z,101612.88
2022-08-28T18:48:33.104Z,101606.53
2022-08-28T18:50:59.985Z,101605.06
2022-08-28T18:53:28.033Z,101604.91
2022-08-28T18:55:56.028Z,101601.38
2022-08-28T18:58:23.342Z,101597.22
2022-08-28T19:00:51.236Z,101586.13
2022-08-28T19:03:18.265Z,101581.88
2022-08-28T19:05:45.308Z,101574.09
2022-08-28T19:08:15.277Z,101571.34
2022-08-28T19:10:43.156Z,101572.91
2022-08-28T19:13:10.271Z,101578.84
2022-08-28T19:15:37.155Z,101574.81
2022-08-28T19:18:05.418Z,101575.00
2022-08-28T19:20:32.603Z,101573.97
2022-08-28T19:22:59.775Z,101568.22
2022-08-28T19:25:29.577Z,101559.97
2022-08-28T19:28:01.697Z,101550.16
2022-08-28T19:30:33.149Z,101549.31
2022-08-28T19:33:02.159Z,101530.06
2022-08-28T19:35:29.010Z,101511.13
2022-08-28T19:37:55.959Z,101498.41
2022-08-28T19:40:27.379Z,101496.53
2022-08-28T19:42:54.484Z,101498.53
2022-08-28T19:45:21.611Z,101491.03
2022-08-28T19:47:48.803Z,101472.91
2022-08-28T19:50:15.898Z,101471.31
2022-08-28T19:52:44.031Z,101456.97
2022-08-28T19:55:21.228Z,101446.28
2022-08-28T19:57:49.358Z,101424.13
2022-08-28T20:00:22.495Z,101423.97
2022-08-28T20:02:51.622Z,101410.78
2022-08-28T20:05:19.908Z,101391.97
2022-08-28T20:07:47.088Z,101381.56
2022-08-28T20:10:15.513Z,101375.63
2022-08-28T20:12:48.132Z,101356.97
2022-08-28T20:15:16.863Z,101342.50
2022-08-28T20:17:43.649Z,101331.69
2022-08-28T20:20:11.921Z,101327.03
2022-08-28T20:22:38.981Z,101320.84
2022-08-28T20:25:07.928Z,101303.91
2022-08-28T20:27:34.588Z,101292.66
2022-08-28T20:30:10.471Z,101287.03
2022-08-28T20:32:40.533Z,101279.66
2022-08-28T20:35:10.655Z,101265.63
2022-08-28T20:37:45.060Z,101253.34
2022-08-28T20:40:18.650Z,101246.13
2022-08-28T20:42:46.434Z,101239.75
2022-08-28T20:45:15.208Z,101236.84
2022-08-28T20:47:45.168Z,101215.31
2022-08-28T20:50:13.839Z,101212.56
2022-08-28T20:52:41.023Z,101203.13
2022-08-28T20:55:09.137Z,101210.38
2022-08-28T20:57:36.589Z,101200.38
2022-08-28T21:00:09.656Z,101203.13
2022-08-28T21:02:37.229Z,101190.28
2022-08-28T21:05:04.947Z,101187.97
2022-08-28T21:07:34.824Z,101179.41
2022-08-28T21:10:05.917Z,101175.53
2022-08-28T21:12:37.142Z,101182.34
2022-08-28T21:15:05.893Z,101183.47
2022-08-28T21:17:32.722Z,101218.78
2022-08-28T21:20:02.875Z,101215.91
2022-08-28T21:22:31.461Z,101204.31
2022-08-28T21:24:58.345Z,101197.97
2022-08-28T21:27:25.129Z,101195.94
2022-08-28T21:29:55.260Z,101194.22
2022-08-28T21:32:22.877Z,101180.31
2022-08-28T21:34:49.682Z,101174.97
2022-08-28T21:37:16.387Z,101169.47
2022-08-28T21:39:43.053Z,101154.88
2022-08-28T21:42:10.410Z,101146.31
2022-08-28T21:44:38.291Z,101150.69
2022-08-28T21:47:05.454Z,101148.47
2022-08-28T21:49:32.149Z,101157.59
2022-08-28T21:52:03.421Z,101152.81
2022-08-28T21:54:30.280Z,101156.28
2022-08-28T21:56:58.901Z,101155.28
2022-08-28T21:59:28.536Z,101147.34
2022-08-28T22:02:04.335Z,101153.97
2022-08-28T22:04:31.167Z,101149.38
2022-08-28T22:07:00.750Z,101147.63
2022-08-28T22:09:29.088Z,101142.25
2022-08-28T22:11:55.826Z,101145.91
2022-08-28T22:14:24.585Z,101137.06
2022-08-28T22:16:51.288Z,101128.28
2022-08-28T22:19:18.031Z,101119.88
2022-08-28T22:22:03.384Z,101119.31
2022-08-28T22:24:30.152Z,101125.25
2022-08-28T22:26:57.362Z,101113.66
2022-08-28T22:29:24.655Z,101112.53
2022-08-28T22:31:51.620Z,101102.00
2022-08-28T22:34:18.604Z,101097.81
2022-08-28T22:36:45.265Z,101090.47
2022-08-28T22:39:12.038Z,101093.63
2022-08-28T22:41:38.705Z,101078.06
2022-08-28T22:44:07.241Z,101072.69
2022-08-28T22:46:36.973Z,101071.41
2022-08-28T22:49:04.375Z,101069.22
2022-08-28T22:51:33.507Z,101013.31
2022-08-28T22:54:00.241Z,101002.19
2022-08-28T22:56:26.953Z,100961.91
2022-08-28T22:58:53.584Z,100962.66
2022-08-28T23:01:23.044Z,100939.06
2022-08-28T23:03:50.078Z,100936.31
2022-08-28T23:06:17.172Z,100926.34
2022-08-28T23:08:44.198Z,100919.13
2022-08-28T23:11:11.046Z,100908.63
2022-08-28T23:13:38.217Z,100932.44
2022-08-28T23:16:05.263Z,100922.78
2022-08-28T23:18:51.626Z,100891.03
2022-08-28T23:21:23.793Z,100878.75
2022-08-28T23:23:54.141Z,100876.72
2022-08-28T23:26:21.119Z,100874.50
2022-08-28T23:28:47.903Z,100862.22
2022-08-28T23:31:14.624Z,100860.09
2022-08-28T23:33:41.763Z,100819.75
2022-08-28T23:36:09.360Z,100805.28
2022-08-28T23:38:40.415Z,100804.28
2022-08-28T23:41:10.325Z,100790.53
2022-08-28T23:43:37.578Z,100792.59
2022-08-28T23:46:04.894Z,100782.63
2022-08-28T23:48:32.125Z,100768.50
2022-08-28T23:50:58.968Z,100770.53
2022-08-28T23:53:25.940Z,100761.88
2022-08-28T23:55:54.678Z,100742.09
2022-08-28T23:58:22.333Z,100741.53
